createdAt,value
2018-06-19T00:01:09.579Z,19.40
2018-06-19T00:03:38.528Z,19.30
2018-06-19T00:06:07.858Z,19.20
2018-06-19T00:08:36.985Z,19.20
2018-06-19T00:11:06.219Z,19.10
2018-06-19T00:13:35.200Z,19.10
2018-06-19T00:16:04.267Z,18.90
2018-06-19T00:18:35.386Z,18.80
2018-06-19T00:21:09.892Z,18.80
2018-06-19T00:23:38.850Z,18.70
2018-06-19T00:26:07.757Z,18.70
2018-06-19T00:28:40.226Z,18.70
2018-06-19T00:31:09.196Z,18.70
2018-06-19T00:33:38.040Z,18.60
2018-06-19T00:36:06.963Z,18.50
2018-06-19T00:38:35.855Z,18.50
2018-06-19T00:41:04.776Z,18.40
2018-06-19T00:43:33.677Z,18.30
2018-06-19T00:46:02.806Z,18.20
2018-06-19T00:48:32.101Z,18.20
2018-06-19T00:51:00.980Z,18.20
2018-06-19T00:53:29.902Z,18.20
2018-06-19T00:56:10.035Z,18.20
2018-06-19T00:58:38.943Z,18.10
2018-06-19T01:01:08.217Z,18.20
2018-06-19T01:03:37.237Z,18.20
2018-06-19T01:06:06.170Z,18.30
2018-06-19T01:08:36.113Z,18.30
2018-06-19T01:11:05.053Z,18.30
2018-06-19T01:13:34.295Z,18.10
2018-06-19T01:16:04.172Z,18.00
2018-06-19T01:18:33.075Z,18.00
2018-06-19T01:21:02.292Z,18.00
2018-06-19T01:23:31.386Z,18.10
2018-06-19T01:26:00.576Z,18.10
2018-06-19T01:28:29.864Z,18.20
2018-06-19T01:30:59.179Z,18.20
2018-06-19T01:33:28.077Z,18.20
2018-06-19T01:35:57.057Z,18.10
2018-06-19T01:38:26.211Z,18.10
2018-06-19T01:40:55.247Z,18.10
2018-06-19T01:43:24.112Z,17.90
2018-06-19T01:45:53.328Z,17.80
2018-06-19T01:48:22.210Z,17.70
2018-06-19T01:50:51.074Z,17.60
2018-06-19T01:53:19.974Z,17.50
2018-06-19T01:55:48.856Z,17.40
2018-06-19T01:58:17.783Z,17.30
2018-06-19T02:00:46.858Z,17.30
2018-06-19T02:03:16.223Z,17.20
2018-06-19T02:05:45.232Z,17.10
2018-06-19T02:08:15.020Z,17.10
2018-06-19T02:10:43.917Z,17.10
2018-06-19T02:13:12.890Z,17.10
2018-06-19T02:15:41.931Z,17.00
2018-06-19T02:18:11.083Z,17.00
2018-06-19T02:20:40.319Z,16.90
2018-06-19T02:23:09.517Z,16.90
2018-06-19T02:25:38.577Z,16.70
2018-06-19T02:28:08.110Z,16.60
2018-06-19T02:30:37.253Z,16.60
2018-06-19T02:33:06.147Z,16.60
2018-06-19T02:35:35.166Z,16.50
2018-06-19T02:38:04.119Z,16.50
2018-06-19T02:40:33.052Z,16.50
2018-06-19T02:43:02.162Z,16.50
2018-06-19T02:45:31.719Z,16.50
2018-06-19T02:48:00.613Z,16.50
2018-06-19T02:50:29.642Z,16.40
2018-06-19T02:52:59.284Z,16.50
2018-06-19T02:55:28.503Z,16.40
2018-06-19T02:57:57.528Z,16.40
2018-06-19T03:00:26.451Z,16.40
2018-06-19T03:02:55.408Z,16.40
2018-06-19T03:05:24.505Z,16.40
2018-06-19T03:07:53.435Z,16.50
2018-06-19T03:10:22.384Z,16.50
2018-06-19T03:12:51.580Z,16.50
2018-06-19T03:15:20.576Z,16.60
2018-06-19T03:17:49.525Z,16.70
2018-06-19T03:20:18.453Z,16.80
2018-06-19T03:22:47.443Z,17.00
2018-06-19T03:25:16.538Z,17.80
2018-06-19T03:27:45.915Z,18.90
2018-06-19T03:30:14.956Z,20.20
2018-06-19T03:32:43.795Z,21.40
2018-06-19T03:35:12.806Z,22.50
2018-06-19T03:37:41.672Z,23.60
2018-06-19T03:40:10.616Z,24.50
2018-06-19T03:42:39.572Z,25.00
2018-06-19T03:45:08.504Z,25.40
2018-06-19T03:50:06.000Z,25.60
2018-06-19T03:52:34.865Z,25.60
2018-06-19T03:55:03.777Z,25.50
2018-06-19T03:57:32.691Z,25.60
2018-06-19T04:00:01.584Z,25.20
2018-06-19T04:02:30.520Z,25.60
2018-06-19T04:04:59.400Z,26.10
2018-06-19T04:07:28.333Z,26.30
2018-06-19T04:09:57.198Z,26.50
2018-06-19T04:12:26.142Z,27.10
2018-06-19T04:14:55.016Z,27.20
2018-06-19T04:17:26.792Z,27.00
2018-06-19T04:19:57.207Z,27.00
2018-06-19T04:22:27.593Z,26.40
2018-06-19T04:24:56.706Z,25.50
2018-06-19T04:27:25.590Z,24.80
2018-06-19T04:29:54.511Z,24.40
2018-06-19T04:32:23.378Z,24.30
2018-06-19T04:34:52.415Z,24.40
2018-06-19T04:37:21.464Z,24.70
2018-06-19T04:39:50.922Z,25.00
2018-06-19T04:42:19.811Z,25.10
2018-06-19T04:44:48.704Z,25.50
2018-06-19T04:47:17.614Z,25.80
2018-06-19T04:49:46.551Z,25.80
2018-06-19T04:52:15.494Z,25.90
2018-06-19T04:54:44.417Z,26.10
2018-06-19T04:57:13.387Z,26.30
2018-06-19T04:59:42.251Z,26.40
2018-06-19T05:02:11.168Z,26.50
2018-06-19T05:04:40.077Z,26.40
2018-06-19T05:07:08.981Z,26.60
2018-06-19T05:09:37.864Z,26.90
2018-06-19T05:12:07.049Z,27.10
2018-06-19T05:14:35.921Z,27.20
2018-06-19T05:17:04.902Z,27.40
2018-06-19T05:19:33.812Z,27.30
2018-06-19T05:22:03.652Z,27.40
2018-06-19T05:24:33.645Z,27.20
2018-06-19T05:27:02.616Z,26.80
2018-06-19T05:29:31.463Z,26.30
2018-06-19T05:32:00.341Z,26.00
2018-06-19T05:34:29.309Z,25.90
2018-06-19T05:39:26.732Z,25.60
2018-06-19T05:41:55.602Z,25.50
2018-06-19T05:44:24.588Z,25.20
2018-06-19T05:46:54.232Z,25.20
2018-06-19T05:49:23.139Z,25.30
2018-06-19T05:51:52.071Z,25.30
2018-06-19T05:54:21.118Z,25.20
2018-06-19T05:56:50.050Z,25.10
2018-06-19T05:59:18.971Z,25.00
2018-06-19T06:01:47.912Z,25.00
2018-06-19T06:04:16.823Z,25.00
2018-06-19T06:06:45.827Z,25.00
2018-06-19T06:09:14.772Z,24.90
2018-06-19T06:11:43.680Z,24.90
2018-06-19T06:14:12.596Z,25.10
2018-06-19T06:16:41.520Z,25.20
2018-06-19T06:19:10.449Z,25.30
2018-06-19T06:21:39.387Z,25.50
2018-06-19T06:24:08.290Z,25.80
2018-06-19T06:29:05.897Z,26.50
2018-06-19T06:31:34.808Z,26.70
2018-06-19T06:34:03.757Z,26.80
2018-06-19T06:36:32.663Z,27.10
2018-06-19T06:39:01.619Z,27.50
2018-06-19T06:41:30.524Z,27.90
2018-06-19T06:43:59.426Z,28.10
2018-06-19T06:46:28.428Z,28.60
2018-06-19T06:48:57.467Z,29.10
2018-06-19T06:51:26.399Z,29.50
2018-06-19T06:53:55.322Z,29.80
2018-06-19T06:56:24.423Z,30.30
2018-06-19T06:58:53.416Z,30.60
2018-06-19T07:01:22.303Z,32.20
2018-06-19T07:03:51.228Z,34.80
2018-06-19T07:08:48.863Z,39.90
2018-06-19T07:11:18.056Z,41.90
2018-06-19T07:13:47.192Z,43.10
2018-06-19T07:16:16.326Z,44.30
2018-06-19T07:18:45.484Z,45.30
2018-06-19T07:21:14.699Z,46.30
2018-06-19T07:23:43.812Z,46.00
2018-06-19T07:26:13.686Z,44.50
2018-06-19T07:28:43.344Z,43.40
2018-06-19T07:31:12.612Z,42.20
2018-06-19T07:33:41.941Z,42.90
2018-06-19T07:36:11.456Z,43.40
2018-06-19T07:38:41.261Z,43.40
2018-06-19T07:41:11.038Z,44.30
2018-06-19T07:43:40.331Z,44.80
2018-06-19T07:46:09.611Z,44.90
2018-06-19T07:48:38.747Z,45.10
2018-06-19T07:51:07.909Z,44.50
2018-06-19T07:53:37.721Z,45.00
2018-06-19T07:56:06.910Z,45.20
2018-06-19T07:58:36.763Z,45.10
2018-06-19T08:01:05.692Z,44.30
2018-06-19T08:03:34.603Z,43.40
2018-06-19T08:06:03.475Z,43.50
2018-06-19T08:08:32.371Z,42.70
2018-06-19T08:11:01.320Z,42.20
2018-06-19T08:13:30.325Z,42.40
2018-06-19T08:15:59.273Z,42.80
2018-06-19T08:18:29.060Z,43.50
2018-06-19T08:20:58.146Z,44.20
2018-06-19T08:23:27.234Z,45.10
2018-06-19T08:25:57.000Z,45.50
2018-06-19T08:28:26.166Z,45.90
2018-06-19T08:30:55.464Z,46.10
2018-06-19T08:33:24.938Z,45.30
2018-06-19T08:35:54.271Z,44.00
2018-06-19T08:38:23.535Z,45.10
2018-06-19T08:40:53.580Z,46.60
2018-06-19T08:43:22.792Z,47.70
2018-06-19T08:45:52.449Z,47.90
2018-06-19T08:48:21.900Z,45.70
2018-06-19T08:50:51.061Z,42.10
2018-06-19T08:53:20.183Z,40.90
2018-06-19T08:55:49.177Z,40.20
2018-06-19T08:58:18.352Z,39.00
2018-06-19T09:00:47.245Z,37.60
2018-06-19T09:03:16.269Z,35.90
2018-06-19T09:05:45.115Z,34.70
2018-06-19T09:08:14.105Z,34.80
2018-06-19T09:10:43.009Z,35.60
2018-06-19T09:13:11.948Z,35.30
2018-06-19T09:15:40.912Z,35.10
2018-06-19T09:18:09.824Z,37.20
2018-06-19T09:20:38.805Z,37.50
2018-06-19T09:23:07.687Z,37.20
2018-06-19T09:25:36.639Z,35.80
2018-06-19T09:28:05.667Z,34.40
2018-06-19T09:30:34.579Z,33.30
2018-06-19T09:33:03.487Z,34.70
2018-06-19T09:35:32.401Z,35.60
2018-06-19T09:38:01.360Z,35.10
2018-06-19T09:40:30.331Z,34.00
2018-06-19T09:42:59.316Z,33.30
2018-06-19T09:45:28.266Z,32.70
2018-06-19T09:47:57.209Z,32.50
2018-06-19T09:50:26.152Z,32.30
2018-06-19T09:52:55.160Z,31.70
2018-06-19T09:55:24.131Z,31.70
2018-06-19T10:00:26.985Z,31.70
2018-06-19T10:02:56.033Z,31.60
2018-06-19T10:05:24.987Z,31.60
2018-06-19T10:07:53.941Z,31.90
2018-06-19T10:12:51.447Z,32.50
2018-06-19T10:15:20.436Z,32.20
2018-06-19T10:17:49.320Z,31.80
2018-06-19T10:20:18.270Z,31.60
2018-06-19T10:22:47.296Z,31.70
2018-06-19T10:25:16.422Z,32.00
2018-06-19T10:27:45.575Z,32.00
2018-06-19T10:30:14.565Z,32.10
2018-06-19T10:32:43.476Z,32.40
2018-06-19T10:35:12.391Z,32.70
2018-06-19T10:37:41.296Z,32.80
2018-06-19T10:40:10.242Z,32.90
2018-06-19T10:42:39.137Z,33.00
2018-06-19T10:45:08.055Z,32.90
2018-06-19T10:47:36.956Z,32.80
2018-06-19T10:50:05.915Z,32.50
2018-06-19T10:52:34.860Z,31.90
2018-06-19T10:55:03.751Z,31.50
2018-06-19T10:57:32.645Z,30.90
2018-06-19T11:00:01.585Z,30.50
2018-06-19T11:02:30.495Z,30.30
2018-06-19T11:04:59.448Z,30.20
2018-06-19T11:07:30.435Z,30.10
2018-06-19T11:10:01.135Z,30.10
2018-06-19T11:12:30.227Z,30.30
2018-06-19T11:14:59.229Z,30.60
2018-06-19T11:17:28.189Z,31.30
2018-06-19T11:19:57.156Z,31.90
2018-06-19T11:22:26.085Z,32.10
2018-06-19T11:24:55.067Z,32.60
2018-06-19T11:27:23.972Z,32.80
2018-06-19T11:29:52.911Z,32.70
2018-06-19T11:32:21.813Z,32.40
2018-06-19T11:34:50.768Z,32.20
2018-06-19T11:37:19.708Z,32.50
2018-06-19T11:39:48.657Z,32.60
2018-06-19T11:42:17.615Z,32.70
2018-06-19T11:44:46.605Z,32.00
2018-06-19T11:47:15.518Z,32.00
2018-06-19T11:49:44.468Z,31.80
2018-06-19T11:52:13.352Z,31.70
2018-06-19T11:54:42.276Z,31.60
2018-06-19T11:57:11.522Z,31.00
2018-06-19T11:59:40.386Z,30.40
2018-06-19T12:02:09.371Z,30.10
2018-06-19T12:04:38.318Z,29.80
2018-06-19T12:07:07.351Z,30.00
2018-06-19T12:09:36.275Z,30.20
2018-06-19T12:12:05.235Z,30.20
2018-06-19T12:14:34.157Z,30.10
2018-06-19T12:17:03.159Z,30.00
2018-06-19T12:19:32.018Z,29.80
2018-06-19T12:22:00.997Z,29.50
2018-06-19T12:24:29.936Z,29.50
2018-06-19T12:26:58.909Z,29.60
2018-06-19T12:29:27.839Z,29.50
2018-06-19T12:31:56.741Z,29.40
2018-06-19T12:34:25.666Z,29.70
2018-06-19T12:36:54.553Z,30.50
2018-06-19T12:39:23.502Z,30.80
2018-06-19T12:41:52.416Z,31.30
2018-06-19T12:44:21.320Z,31.50
2018-06-19T12:46:50.230Z,31.50
2018-06-19T12:50:34.196Z,31.30
2018-06-19T12:53:15.032Z,31.50
2018-06-19T12:55:55.411Z,31.90
2018-06-19T12:58:24.315Z,32.00
2018-06-19T13:00:53.253Z,31.90
2018-06-19T13:03:33.278Z,31.80
2018-06-19T13:06:13.315Z,31.60
2018-06-19T13:08:42.199Z,31.30
2018-06-19T13:11:11.115Z,30.80
2018-06-19T13:13:51.171Z,30.50
2018-06-19T13:16:31.275Z,30.00
2018-06-19T13:19:11.346Z,29.40
2018-06-19T13:21:40.275Z,29.20
2018-06-19T13:24:09.270Z,29.30
2018-06-19T13:26:38.157Z,29.10
2018-06-19T13:29:44.860Z,29.00
2018-06-19T13:32:13.825Z,29.00
2018-06-19T13:34:42.811Z,29.00
2018-06-19T13:37:11.714Z,29.00
2018-06-19T13:39:41.230Z,28.80
2018-06-19T13:42:22.527Z,28.70
2018-06-19T13:44:54.572Z,28.70
2018-06-19T13:47:23.568Z,28.70
2018-06-19T13:49:52.468Z,28.70
2018-06-19T13:52:21.459Z,28.90
2018-06-19T13:54:50.398Z,28.90
2018-06-19T13:57:35.455Z,28.70
2018-06-19T14:00:06.822Z,28.40
2018-06-19T14:02:35.808Z,28.10
2018-06-19T14:05:05.373Z,28.00
2018-06-19T14:07:39.820Z,28.00
2018-06-19T14:10:21.532Z,27.80
2018-06-19T14:13:05.917Z,27.90
2018-06-19T14:15:37.772Z,27.90
2018-06-19T14:18:07.074Z,28.10
2018-06-19T14:20:36.148Z,28.20
2018-06-19T14:23:05.219Z,28.10
2018-06-19T14:25:34.151Z,28.10
2018-06-19T14:28:03.111Z,28.10
2018-06-19T14:30:32.039Z,28.10
2018-06-19T14:33:00.907Z,28.30
2018-06-19T14:35:29.908Z,28.40
2018-06-19T14:37:58.814Z,28.50
2018-06-19T14:40:27.753Z,28.30
2018-06-19T14:42:56.690Z,28.20
2018-06-19T14:45:26.196Z,28.20
2018-06-19T14:47:55.104Z,28.40
2018-06-19T14:50:24.040Z,28.20
2018-06-19T14:52:53.067Z,28.20
2018-06-19T14:55:22.017Z,27.90
2018-06-19T14:57:51.254Z,27.70
2018-06-19T15:00:20.184Z,27.70
2018-06-19T15:02:49.379Z,27.50
2018-06-19T15:05:18.371Z,27.60
2018-06-19T15:07:52.915Z,27.80
2018-06-19T15:10:22.387Z,28.00
2018-06-19T15:12:51.356Z,28.20
2018-06-19T15:15:20.491Z,28.00
2018-06-19T15:17:49.609Z,28.20
2018-06-19T15:20:18.654Z,28.40
2018-06-19T15:22:47.786Z,28.40
2018-06-19T15:25:16.739Z,28.50
2018-06-19T15:27:45.721Z,28.40
2018-06-19T15:30:15.188Z,28.40
2018-06-19T15:32:44.309Z,28.50
2018-06-19T15:35:13.875Z,28.50
2018-06-19T15:37:43.992Z,28.60
2018-06-19T15:40:12.907Z,28.90
2018-06-19T15:42:41.911Z,28.90
2018-06-19T15:45:11.524Z,28.80
2018-06-19T15:47:40.613Z,28.50
2018-06-19T15:50:09.815Z,28.20
2018-06-19T15:52:38.752Z,28.00
2018-06-19T15:55:07.705Z,27.70
2018-06-19T15:57:36.691Z,27.50
2018-06-19T16:00:05.984Z,27.40
2018-06-19T16:02:34.959Z,27.40
2018-06-19T16:05:03.955Z,27.50
2018-06-19T16:07:32.979Z,27.70
2018-06-19T16:10:01.951Z,27.90
2018-06-19T16:12:30.939Z,28.00
2018-06-19T16:14:59.880Z,27.90
2018-06-19T16:17:28.823Z,27.80
2018-06-19T16:19:57.782Z,27.70
2018-06-19T16:22:26.794Z,27.40
2018-06-19T16:24:55.763Z,27.10
2018-06-19T16:27:24.675Z,27.10
2018-06-19T16:29:53.615Z,27.10
2018-06-19T16:32:22.537Z,27.00
2018-06-19T16:34:51.500Z,26.90
2018-06-19T16:37:20.448Z,26.90
2018-06-19T16:39:49.375Z,26.90
2018-06-19T16:42:18.347Z,26.90
2018-06-19T16:44:47.379Z,26.80
2018-06-19T16:47:16.913Z,26.70
2018-06-19T16:49:45.816Z,26.70
2018-06-19T16:52:15.160Z,26.80
2018-06-19T16:54:44.080Z,26.80
2018-06-19T16:57:13.021Z,26.90
2018-06-19T16:59:41.935Z,26.90
2018-06-19T17:02:11.239Z,26.90
2018-06-19T17:04:40.152Z,26.90
2018-06-19T17:07:09.079Z,26.80
2018-06-19T17:09:38.013Z,26.90
2018-06-19T17:12:07.037Z,26.90
2018-06-19T17:14:35.981Z,26.90
2018-06-19T17:17:04.895Z,26.70
2018-06-19T17:19:33.907Z,26.70
2018-06-19T17:22:02.821Z,26.60
2018-06-19T17:24:32.009Z,26.50
2018-06-19T17:27:00.949Z,26.50
2018-06-19T17:29:29.935Z,26.40
2018-06-19T17:31:58.863Z,26.40
2018-06-19T17:34:27.925Z,26.30
2018-06-19T17:36:56.848Z,26.10
2018-06-19T17:39:25.767Z,26.10
2018-06-19T17:41:54.739Z,26.00
2018-06-19T17:44:23.673Z,25.90
2018-06-19T17:46:53.701Z,25.80
2018-06-19T17:49:22.652Z,25.70
2018-06-19T17:51:51.588Z,25.60
2018-06-19T17:54:20.552Z,25.50
2018-06-19T17:59:18.912Z,25.40
2018-06-19T18:01:47.878Z,25.30
2018-06-19T18:04:16.830Z,25.30
2018-06-19T18:06:45.858Z,25.30
2018-06-19T18:09:14.986Z,25.30
2018-06-19T18:11:44.307Z,25.30
2018-06-19T18:14:13.223Z,25.20
2018-06-19T18:16:42.232Z,25.20
2018-06-19T18:19:11.487Z,25.10
2018-06-19T18:21:40.948Z,25.00
2018-06-19T18:24:09.867Z,25.00
2018-06-19T18:26:38.767Z,25.00
2018-06-19T18:29:07.898Z,24.90
2018-06-19T18:31:36.823Z,25.00
2018-06-19T18:34:05.950Z,24.90
2018-06-19T18:36:35.001Z,24.90
2018-06-19T18:39:05.151Z,24.90
2018-06-19T18:41:34.180Z,24.90
2018-06-19T18:44:03.108Z,24.90
2018-06-19T18:46:32.097Z,24.90
2018-06-19T18:49:01.054Z,24.80
2018-06-19T18:51:30.024Z,24.80
2018-06-19T18:53:59.638Z,24.80
2018-06-19T18:56:28.669Z,24.70
2018-06-19T18:58:57.628Z,24.70
2018-06-19T19:01:26.592Z,24.80
2018-06-19T19:03:55.604Z,24.70
2018-06-19T19:06:24.743Z,24.60
2018-06-19T19:08:53.667Z,24.60
2018-06-19T19:11:22.784Z,24.60
2018-06-19T19:13:51.745Z,24.70
2018-06-19T19:16:25.783Z,24.70
2018-06-19T19:19:00.140Z,24.60
2018-06-19T19:21:29.089Z,24.60
2018-06-19T19:23:58.247Z,24.50
2018-06-19T19:26:32.787Z,24.50
2018-06-19T19:29:07.311Z,24.50
2018-06-19T19:31:37.199Z,24.40
2018-06-19T19:34:06.580Z,24.40
2018-06-19T19:36:42.152Z,24.30
2018-06-19T19:39:16.374Z,24.30
2018-06-19T19:41:46.488Z,24.20
2018-06-19T19:44:15.965Z,24.10
2018-06-19T19:46:50.105Z,24.20
2018-06-19T19:49:19.042Z,24.10
2018-06-19T19:51:47.955Z,24.10
2018-06-19T19:56:50.755Z,24.00
2018-06-19T19:59:19.781Z,24.00
2018-06-19T20:01:48.699Z,24.00
2018-06-19T20:04:17.662Z,24.00
2018-06-19T20:06:46.640Z,24.00
2018-06-19T20:09:15.554Z,23.90
2018-06-19T20:11:45.646Z,23.90
2018-06-19T20:14:14.853Z,23.80
2018-06-19T20:16:43.877Z,23.90
2018-06-19T20:19:12.964Z,23.70
2018-06-19T20:21:41.920Z,23.70
2018-06-19T20:24:10.977Z,23.70
2018-06-19T20:26:39.909Z,23.80
2018-06-19T20:29:08.915Z,23.70
2018-06-19T20:31:37.849Z,23.70
2018-06-19T20:34:07.134Z,23.60
2018-06-19T20:36:36.050Z,23.60
2018-06-19T20:39:08.147Z,23.70
2018-06-19T20:41:37.098Z,23.70
2018-06-19T20:44:06.116Z,23.60
2018-06-19T20:46:35.056Z,23.60
2018-06-19T20:49:04.071Z,23.70
2018-06-19T20:51:33.108Z,23.70
2018-06-19T20:54:02.019Z,23.60
2018-06-19T20:56:30.984Z,23.50
2018-06-19T20:58:59.907Z,23.50
2018-06-19T21:01:28.872Z,23.40
2018-06-19T21:03:57.800Z,23.30
2018-06-19T21:06:26.977Z,23.40
2018-06-19T21:08:55.899Z,23.40
2018-06-19T21:11:24.887Z,23.40
2018-06-19T21:13:53.824Z,23.30
2018-06-19T21:16:22.868Z,23.30
2018-06-19T21:18:51.785Z,23.20
2018-06-19T21:21:20.736Z,23.20
2018-06-19T21:23:49.692Z,23.20
2018-06-19T21:26:18.624Z,23.20
2018-06-19T21:28:47.569Z,23.10
2018-06-19T21:31:16.768Z,23.10
2018-06-19T21:33:45.726Z,23.10
2018-06-19T21:36:14.661Z,23.10
2018-06-19T21:38:43.596Z,23.10
2018-06-19T21:41:12.496Z,23.00
2018-06-19T21:43:41.422Z,23.10
2018-06-19T21:46:10.338Z,23.10
2018-06-19T21:48:39.327Z,23.10
2018-06-19T21:51:08.256Z,23.00
2018-06-19T21:53:37.184Z,23.00
2018-06-19T21:56:06.233Z,23.00
2018-06-19T21:58:35.150Z,23.00
2018-06-19T22:01:04.124Z,23.00
2018-06-19T22:03:33.048Z,23.00
2018-06-19T22:08:34.696Z,22.90
2018-06-19T22:11:03.642Z,22.90
2018-06-19T22:13:32.559Z,22.90
2018-06-19T22:16:01.508Z,22.80
2018-06-19T22:18:30.648Z,22.80
2018-06-19T22:20:59.624Z,22.90
2018-06-19T22:23:28.667Z,22.80
2018-06-19T22:25:57.835Z,22.80
2018-06-19T22:28:26.830Z,22.80
2018-06-19T22:30:55.755Z,22.80
2018-06-19T22:33:24.720Z,22.70
2018-06-19T22:35:53.724Z,22.70
2018-06-19T22:38:22.705Z,22.70
2018-06-19T22:40:51.631Z,22.70
2018-06-19T22:43:20.581Z,22.60
2018-06-19T22:45:49.503Z,22.60
2018-06-19T22:48:18.476Z,22.60
2018-06-19T22:50:47.391Z,22.50
2018-06-19T22:53:16.407Z,22.50
2018-06-19T22:55:45.320Z,22.60
2018-06-19T22:58:14.268Z,22.50
2018-06-19T23:00:43.304Z,22.50
2018-06-19T23:03:12.196Z,22.50
2018-06-19T23:05:41.147Z,22.50
2018-06-19T23:08:10.159Z,22.60
2018-06-19T23:10:39.099Z,22.50
2018-06-19T23:13:08.020Z,22.60
2018-06-19T23:15:36.972Z,22.50
2018-06-19T23:18:06.038Z,22.50
2018-06-19T23:20:35.135Z,22.50
2018-06-19T23:23:04.105Z,22.50
2018-06-19T23:25:33.013Z,22.50
2018-06-19T23:28:01.941Z,22.40
2018-06-19T23:30:30.846Z,22.40
2018-06-19T23:32:59.831Z,22.40
2018-06-19T23:35:28.808Z,22.40
2018-06-19T23:37:57.856Z,22.40
2018-06-19T23:40:26.818Z,22.40
2018-06-19T23:42:55.759Z,22.30
2018-06-19T23:45:24.667Z,22.30
2018-06-19T23:47:53.604Z,22.20
2018-06-19T23:50:22.507Z,22.20
2018-06-19T23:52:51.503Z,22.20
2018-06-19T23:55:20.441Z,22.10
2018-06-19T23:57:49.414Z,22.10
